Time;durP1;ratioP1;P1;durP2;ratioP2;P2;SDS_P1;SDS_P2;PMS_P1;PMS_P2;Temp;Humidity;BMP_temperature;BMP_pressure;BME280_temperature;BME280_humidity;BME280_pressure;Samples;Min_cycle;Max_cycle;Signal;HPM_P1;HPM_P2
2021/08/03 00:02:07;;;;;;;;;;;;;;;12.54;92.21;99263.59;5014437;28;19932;-61
2021/08/03 00:04:35;;;;;;;;;;;;;;;12.49;92.05;99267.03;5015335;28;19921;-60
2021/08/03 00:07:00;;;;;;;;;;;;;;;12.52;92.64;99261.16;5031181;28;20394;-61
2021/08/03 00:09:25;;;;;;;;;;;;;;;12.58;93.17;99256.63;5035279;28;19921;-61
2021/08/03 00:11:51;;;;;;;;;;;;;;;12.47;93.69;99264.59;5033093;28;20326;-61
2021/08/03 00:14:17;;;;;;;;;;;;;;;12.52;93.18;99258.47;5033904;28;19917;-61
2021/08/03 00:16:42;;;;;;;;;;;;;;;12.59;92.92;99256.38;5034441;28;20330;-61
2021/08/03 00:19:07;;;;;;;;;;;;;;;12.52;92.88;99256.56;5034986;28;19964;-61
2021/08/03 00:21:33;;;;;;;;;;;;;;;12.62;93.51;99247.00;5034373;28;19944;-61
2021/08/03 00:23:58;;;;;;;;;;;;;;;12.62;93.13;99245.13;5033478;28;19920;-61
2021/08/03 00:26:24;;;;;;;;;;;;;;;12.58;93.20;99241.34;5034245;28;19928;-61
2021/08/03 00:28:49;;;;;;;;;;;;;;;12.66;93.55;99238.16;5034761;28;19963;-61
2021/08/03 00:31:16;;;;;;;;;;;;;;;12.62;93.01;99238.94;5034245;28;20437;-61
2021/08/03 00:33:43;;;;;;;;;;;;;;;12.35;94.25;99241.63;5034491;28;19917;-61
2021/08/03 00:36:08;;;;;;;;;;;;;;;12.39;94.68;99234.69;5032554;28;20363;-61
2021/08/03 00:38:33;;;;;;;;;;;;;;;12.53;94.73;99233.22;5034673;28;20000;-61
2021/08/03 00:41:00;;;;;;;;;;;;;;;12.54;93.68;99225.97;5033980;28;20406;-61
2021/08/03 00:43:25;;;;;;;;;;;;;;;12.56;93.36;99232.69;5033088;28;19917;-60
2021/08/03 00:45:50;;;;;;;;;;;;;;;12.52;93.21;99232.38;5034028;28;19936;-61
2021/08/03 00:48:15;;;;;;;;;;;;;;;12.50;93.28;99231.84;5034193;28;19925;-61
2021/08/03 00:50:42;;;;;;;;;;;;;;;12.46;93.40;99229.91;5033842;28;19940;-61
2021/08/03 00:53:07;;;;;;;;;;;;;;;12.20;95.13;99223.47;5032852;28;19917;-61
2021/08/03 00:55:32;;;;;;;;;;;;;;;12.26;95.53;99230.53;5033683;28;19973;-60
2021/08/03 00:57:57;;;;;;;;;;;;;;;12.36;95.38;99232.53;5032317;28;19944;-60
2021/08/03 01:00:22;;;;;;;;;;;;;;;12.25;93.55;99235.06;5032499;28;20361;-61
2021/08/03 01:02:48;;;;;;;;;;;;;;;12.35;92.58;99222.81;5033902;28;20011;-61
2021/08/03 01:05:13;;;;;;;;;;;;;;;12.36;92.21;99227.94;5033732;28;19924;-61
2021/08/03 01:07:39;;;;;;;;;;;;;;;12.42;92.07;99212.66;5033934;28;20420;-61
2021/08/03 01:10:16;;;;;;;;;;;;;;;12.49;91.61;99214.09;5033310;28;20432;-61
2021/08/03 01:12:45;;;;;;;;;;;;;;;12.52;91.60;99218.13;5049157;28;20039;-61
2021/08/03 01:15:12;;;;;;;;;;;;;;;12.55;91.80;99222.19;5032387;28;19917;-61
2021/08/03 01:17:42;;;;;;;;;;;;;;;12.57;92.11;99220.88;5032597;28;19914;-61
2021/08/03 01:20:16;;;;;;;;;;;;;;;12.63;92.31;99219.88;5048979;28;20264;-61
2021/08/03 01:23:00;;;;;;;;;;;;;;;12.62;92.29;99218.22;5033578;28;20015;-61
2021/08/03 01:25:28;;;;;;;;;;;;;;;12.57;92.45;99220.88;5032184;28;20040;-61
2021/08/03 01:28:09;;;;;;;;;;;;;;;12.54;93.40;99216.00;5032455;28;19918;-61
2021/08/03 01:30:34;;;;;;;;;;;;;;;12.51;93.44;99220.03;5033041;28;20455;-61
2021/08/03 01:32:59;;;;;;;;;;;;;;;12.53;92.85;99217.09;5033507;28;20008;-61
2021/08/03 01:35:24;;;;;;;;;;;;;;;12.48;93.52;99223.22;5031958;28;19921;-61
2021/08/03 01:37:50;;;;;;;;;;;;;;;12.56;93.47;99221.16;5033429;28;20077;-61
2021/08/03 01:40:15;;;;;;;;;;;;;;;12.62;94.07;99228.16;5031728;28;19928;-61
2021/08/03 01:42:41;;;;;;;;;;;;;;;12.63;93.98;99227.94;5032132;28;19952;-61
2021/08/03 01:45:07;;;;;;;;;;;;;;;12.67;94.12;99231.72;5033023;28;19924;-61
2021/08/03 01:47:32;;;;;;;;;;;;;;;12.43;93.58;99235.78;5032370;28;19917;-60
2021/08/03 01:49:58;;;;;;;;;;;;;;;12.34;94.16;99227.38;5032282;28;20363;-61
2021/08/03 01:52:23;;;;;;;;;;;;;;;12.26;94.67;99225.16;5031626;28;19922;-61
2021/08/03 01:54:48;;;;;;;;;;;;;;;12.23;95.31;99225.66;5033326;28;20054;-61
2021/08/03 01:57:14;;;;;;;;;;;;;;;12.24;95.48;99228.09;5032955;28;19922;-61
2021/08/03 01:59:40;;;;;;;;;;;;;;;12.39;95.40;99230.13;5032113;28;19970;-61
2021/08/03 02:02:05;;;;;;;;;;;;;;;12.46;94.66;99219.16;5031554;28;20398;-61
2021/08/03 02:04:30;;;;;;;;;;;;;;;12.42;94.24;99223.41;5031826;28;19964;-61
2021/08/03 02:06:56;;;;;;;;;;;;;;;12.46;94.12;99219.97;5032985;28;19921;-61
2021/08/03 02:09:21;;;;;;;;;;;;;;;12.29;94.80;99206.63;5032078;28;19917;-61
2021/08/03 02:11:47;;;;;;;;;;;;;;;12.49;94.81;99207.91;5036391;28;19921;-61
2021/08/03 02:14:12;;;;;;;;;;;;;;;12.56;94.52;99203.13;5037195;28;19917;-61
2021/08/03 02:16:38;;;;;;;;;;;;;;;12.45;94.62;99204.09;5036813;28;19922;-61
2021/08/03 02:19:03;;;;;;;;;;;;;;;12.53;95.41;99195.59;5036187;28;19917;-62
2021/08/03 02:21:28;;;;;;;;;;;;;;;12.62;94.75;99190.53;5036490;28;19921;-62
2021/08/03 02:23:54;;;;;;;;;;;;;;;12.62;94.36;99191.34;5037196;28;19917;-62
2021/08/03 02:26:19;;;;;;;;;;;;;;;12.65;94.22;99195.38;5036857;28;19939;-61
2021/08/03 02:28:44;;;;;;;;;;;;;;;12.86;93.84;99188.31;5036897;28;19924;-62
2021/08/03 02:31:11;;;;;;;;;;;;;;;12.74;94.13;99183.91;5036670;28;19921;-61
2021/08/03 02:33:36;;;;;;;;;;;;;;;12.65;94.60;99190.00;5036832;28;19920;-61
2021/08/03 02:36:06;;;;;;;;;;;;;;;12.60;95.32;99182.72;5035378;28;19921;-61
2021/08/03 02:38:32;;;;;;;;;;;;;;;12.60;94.94;99188.09;5035631;28;19936;-61
2021/08/03 02:40:57;;;;;;;;;;;;;;;12.59;94.71;99185.69;5036308;28;20387;-61
2021/08/03 02:43:24;;;;;;;;;;;;;;;12.56;95.02;99187.00;5035448;28;19913;-61
2021/08/03 02:45:49;;;;;;;;;;;;;;;12.48;95.25;99184.75;5035168;28;19967;-61
2021/08/03 02:48:15;;;;;;;;;;;;;;;12.46;96.01;99184.22;5036589;28;19918;-61
2021/08/03 02:50:44;;;;;;;;;;;;;;;12.45;96.14;99187.97;5034848;28;19967;-61
2021/08/03 02:53:14;;;;;;;;;;;;;;;12.43;95.93;99187.41;5035194;28;19971;-61
2021/08/03 02:55:41;;;;;;;;;;;;;;;12.51;96.12;99185.06;5034739;28;20374;-61
2021/08/03 02:58:10;;;;;;;;;;;;;;;12.52;95.76;99181.31;5036589;28;19918;-61
2021/08/03 03:00:36;;;;;;;;;;;;;;;12.54;95.55;99183.75;5034947;28;19925;-61
2021/08/03 03:03:04;;;;;;;;;;;;;;;12.52;95.90;99184.00;5034670;28;20279;-61
2021/08/03 03:05:29;;;;;;;;;;;;;;;12.61;95.92;99178.97;5033647;28;19921;-62
2021/08/03 03:08:07;;;;;;;;;;;;;;;12.58;95.28;99179.50;5034993;28;19913;-61
2021/08/03 03:10:33;;;;;;;;;;;;;;;12.61;95.18;99180.84;5034770;28;20042;-61
2021/08/03 03:13:08;;;;;;;;;;;;;;;12.61;94.96;99178.16;5033561;28;20034;-61
2021/08/03 03:15:33;;;;;;;;;;;;;;;12.52;94.98;99175.94;5033478;28;20008;-61
2021/08/03 03:17:59;;;;;;;;;;;;;;;12.55;94.99;99184.56;5035000;28;20446;-61
2021/08/03 03:20:24;;;;;;;;;;;;;;;12.60;95.62;99182.72;5033043;28;19921;-61
2021/08/03 03:22:49;;;;;;;;;;;;;;;12.62;95.54;99183.28;5033202;28;19917;-61
2021/08/03 03:25:16;;;;;;;;;;;;;;;12.56;95.55;99178.94;5033049;28;19913;-62
2021/08/03 03:27:41;;;;;;;;;;;;;;;12.54;95.51;99174.88;5034868;28;19983;-61
2021/08/03 03:30:07;;;;;;;;;;;;;;;12.56;95.91;99175.44;5033116;28;19948;-61
2021/08/03 03:32:32;;;;;;;;;;;;;;;12.50;95.68;99171.88;5033269;28;20387;-60
2021/08/03 03:34:58;;;;;;;;;;;;;;;12.53;96.00;99174.06;5034617;28;19921;-60
2021/08/03 03:37:25;;;;;;;;;;;;;;;12.57;95.73;99167.09;5034185;28;19924;-60
2021/08/03 03:39:50;;;;;;;;;;;;;;;12.50;95.98;99166.50;5033295;28;19949;-61
2021/08/03 03:42:15;;;;;;;;;;;;;;;12.47;96.23;99167.03;5034057;28;19971;-61
2021/08/03 03:44:41;;;;;;;;;;;;;;;12.60;96.00;99165.78;5033225;28;19917;-61
2021/08/03 03:47:08;;;;;;;;;;;;;;;12.60;96.05;99165.78;5033913;28;19925;-61
2021/08/03 03:49:37;;;;;;;;;;;;;;;12.52;95.77;99161.69;5034480;28;20378;-61
2021/08/03 03:52:03;;;;;;;;;;;;;;;12.48;96.53;99160.56;5033749;28;20016;-61
2021/08/03 03:54:30;;;;;;;;;;;;;;;12.48;96.37;99171.31;5033026;28;20012;-61
2021/08/03 03:56:59;;;;;;;;;;;;;;;12.47;96.38;99167.81;5032197;28;20020;-61
2021/08/03 03:59:24;;;;;;;;;;;;;;;12.52;96.56;99167.06;5033028;28;19917;-61
2021/08/03 04:01:50;;;;;;;;;;;;;;;12.63;96.58;99160.72;5033684;28;19975;-61
2021/08/03 04:04:15;;;;;;;;;;;;;;;12.55;96.26;99165.72;4969896;28;1843224;-61
2021/08/03 04:06:40;;;;;;;;;;;;;;;12.53;96.47;99160.63;5033384;28;19925;-61
2021/08/03 04:09:15;;;;;;;;;;;;;;;12.56;96.71;99170.88;5034021;28;20353;-61
2021/08/03 04:11:46;;;;;;;;;;;;;;;12.54;96.83;99164.94;5033450;28;19975;-61
2021/08/03 04:14:13;;;;;;;;;;;;;;;12.51;97.16;99168.13;5035013;28;19917;-61
2021/08/03 04:16:38;;;;;;;;;;;;;;;12.48;97.50;99164.09;5033338;28;19949;-61
2021/08/03 04:19:03;;;;;;;;;;;;;;;12.41;97.90;99158.13;5033723;28;20289;-60
2021/08/03 04:21:28;;;;;;;;;;;;;;;12.45;98.50;99163.78;5034552;28;19948;-60
2021/08/03 04:23:54;;;;;;;;;;;;;;;12.40;98.57;99150.28;5034998;28;20395;-60
2021/08/03 04:26:19;;;;;;;;;;;;;;;12.42;98.59;99150.84;5033911;28;19921;-60
2021/08/03 04:28:44;;;;;;;;;;;;;;;12.37;98.84;99148.13;5033423;28;19917;-60
2021/08/03 04:31:10;;;;;;;;;;;;;;;12.29;99.74;99157.47;5066276;28;20016;-60
2021/08/03 04:33:37;;;;;;;;;;;;;;;12.34;99.93;99148.63;5033632;28;20407;-60
2021/08/03 04:36:02;;;;;;;;;;;;;;;12.36;100.00;99154.56;5034131;28;20376;-61
2021/08/03 04:38:27;;;;;;;;;;;;;;;12.36;100.00;99154.56;5034408;28;19959;-60
2021/08/03 04:40:52;;;;;;;;;;;;;;;12.41;100.00;99146.56;5034028;28;19970;-60
2021/08/03 04:43:18;;;;;;;;;;;;;;;12.33;100.00;99147.84;5034410;28;20375;-60
2021/08/03 04:45:43;;;;;;;;;;;;;;;12.42;100.00;99143.59;5034143;28;19924;-61
2021/08/03 04:48:08;;;;;;;;;;;;;;;12.49;100.00;99140.69;5034337;28;19924;-61
2021/08/03 04:50:34;;;;;;;;;;;;;;;12.52;99.88;99148.25;5033911;28;19917;-60
2021/08/03 04:52:59;;;;;;;;;;;;;;;12.60;100.00;99144.25;5034229;28;19924;-60
2021/08/03 04:55:24;;;;;;;;;;;;;;;12.64;100.00;99142.69;5034117;28;20362;-60
2021/08/03 04:57:50;;;;;;;;;;;;;;;12.67;100.00;99145.66;5034343;28;19917;-60
2021/08/03 05:00:15;;;;;;;;;;;;;;;12.72;99.57;99151.06;5033810;28;19917;-60
2021/08/03 05:02:40;;;;;;;;;;;;;;;12.76;99.12;99146.00;5033980;28;19933;-60
2021/08/03 05:05:06;;;;;;;;;;;;;;;12.76;99.00;99142.50;5033892;28;19922;-61
2021/08/03 05:07:31;;;;;;;;;;;;;;;12.83;98.96;99135.84;5034362;28;19917;-61
2021/08/03 05:10:00;;;;;;;;;;;;;;;12.83;98.50;99130.47;5033202;28;19983;-61
2021/08/03 05:12:26;;;;;;;;;;;;;;;13.04;98.45;99136.75;5033670;28;19980;-60
2021/08/03 05:14:54;;;;;;;;;;;;;;;13.15;97.66;99129.53;5034149;28;20299;-60
2021/08/03 05:17:19;;;;;;;;;;;;;;;13.21;96.81;99133.09;5033448;28;19921;-60
2021/08/03 05:19:45;;;;;;;;;;;;;;;13.28;96.74;99133.66;5034099;28;19917;-61
2021/08/03 05:22:10;;;;;;;;;;;;;;;13.10;95.43;99135.72;5033176;28;19987;-60
2021/08/03 05:24:35;;;;;;;;;;;;;;;13.15;96.19;99125.00;5033695;28;19921;-60
2021/08/03 05:27:00;;;;;;;;;;;;;;;13.27;95.96;99124.78;5033289;28;20303;-61
2021/08/03 05:29:26;;;;;;;;;;;;;;;13.31;95.80;99122.41;5033708;28;19917;-60
2021/08/03 05:31:51;;;;;;;;;;;;;;;13.51;95.52;99132.44;5032940;28;19921;-61
2021/08/03 05:34:17;;;;;;;;;;;;;;;13.77;93.08;99122.53;5033763;28;19917;-61
2021/08/03 05:36:42;;;;;;;;;;;;;;;13.79;92.89;99128.47;5015450;28;20407;-61
2021/08/03 05:39:09;;;;;;;;;;;;;;;13.86;92.81;99129.03;5033724;28;19979;-61
2021/08/03 05:41:34;;;;;;;;;;;;;;;13.91;92.86;99131.75;5033235;28;20045;-61
2021/08/03 05:44:00;;;;;;;;;;;;;;;13.90;91.84;99134.69;5033525;28;20000;-61
2021/08/03 05:46:25;;;;;;;;;;;;;;;14.01;90.94;99129.06;5033246;28;20403;-60
2021/08/03 05:48:50;;;;;;;;;;;;;;;13.71;92.32;99129.00;5031993;28;19917;-60
2021/08/03 05:51:15;;;;;;;;;;;;;;;13.71;92.33;99120.91;5033302;28;20433;-61
2021/08/03 05:53:41;;;;;;;;;;;;;;;13.63;92.52;99121.41;5033373;28;19924;-61
2021/08/03 05:56:06;;;;;;;;;;;;;;;13.59;92.61;99121.94;5032868;28;20048;-60
2021/08/03 05:58:31;;;;;;;;;;;;;;;13.82;92.54;99117.16;5033248;28;19924;-60
2021/08/03 06:00:57;;;;;;;;;;;;;;;13.92;91.69;99117.19;5032788;28;19921;-60
2021/08/03 06:03:22;;;;;;;;;;;;;;;14.20;90.28;99118.56;5031832;28;20441;-60
2021/08/03 06:05:47;;;;;;;;;;;;;;;14.26;90.97;99111.28;5032801;28;20429;-60
2021/08/03 06:08:12;;;;;;;;;;;;;;;14.22;90.42;99118.28;5032130;28;20008;-60
2021/08/03 06:10:38;;;;;;;;;;;;;;;14.12;91.55;99108.31;5032872;28;19922;-60
2021/08/03 06:13:04;;;;;;;;;;;;;;;14.22;91.22;99112.91;5031910;28;20379;-60
2021/08/03 06:15:29;;;;;;;;;;;;;;;14.23;90.75;99117.22;5032676;28;19921;-60
2021/08/03 06:17:59;;;;;;;;;;;;;;;14.18;91.03;99119.94;5032680;28;19917;-60
2021/08/03 06:20:24;;;;;;;;;;;;;;;14.17;90.42;99112.91;5031724;28;19921;-60
2021/08/03 06:22:49;;;;;;;;;;;;;;;14.17;91.57;99112.91;5033223;28;20394;-61
2021/08/03 06:25:15;;;;;;;;;;;;;;;14.29;91.63;99110.75;5031618;28;20352;-60
2021/08/03 06:27:40;;;;;;;;;;;;;;;14.19;90.80;99110.75;5033317;28;19913;-60
2021/08/03 06:30:06;;;;;;;;;;;;;;;14.23;91.45;99106.44;5032866;28;19928;-61
2021/08/03 06:32:31;;;;;;;;;;;;;;;14.33;91.40;99106.44;5033387;28;20002;-61
2021/08/03 06:34:57;;;;;;;;;;;;;;;14.33;90.69;99100.25;5033002;28;20379;-60
2021/08/03 06:37:22;;;;;;;;;;;;;;;14.38;90.56;99111.84;5032738;28;20020;-61
2021/08/03 06:39:47;;;;;;;;;;;;;;;14.48;90.08;99112.88;5033008;28;19918;-61
2021/08/03 06:42:18;;;;;;;;;;;;;;;14.53;90.39;99121.84;5032493;28;20016;-60
2021/08/03 06:44:44;;;;;;;;;;;;;;;14.59;90.45;99109.94;5032948;28;20004;-60
2021/08/03 06:47:09;;;;;;;;;;;;;;;14.69;90.75;99119.94;5032758;28;20336;-60
2021/08/03 06:49:37;;;;;;;;;;;;;;;14.75;90.56;99120.72;5031897;28;19921;-61
2021/08/03 06:52:03;;;;;;;;;;;;;;;14.69;90.67;99121.81;5032504;28;19964;-61
2021/08/03 06:54:28;;;;;;;;;;;;;;;14.47;91.53;99133.66;5033026;28;20311;-61
2021/08/03 06:56:54;;;;;;;;;;;;;;;14.36;92.22;99132.88;5029806;28;20007;-60
2021/08/03 06:59:26;;;;;;;;;;;;;;;14.33;92.06;99136.09;5016635;28;19929;-61
2021/08/03 07:02:09;;;;;;;;;;;;;;;13.98;92.61;99143.06;5031466;28;19975;-60
2021/08/03 07:04:50;;;;;;;;;;;;;;;14.48;90.43;99137.16;5035158;28;19925;-60
2021/08/03 07:07:15;;;;;;;;;;;;;;;14.54;88.37;99145.03;5017528;28;19929;-60
2021/08/03 07:09:41;;;;;;;;;;;;;;;13.97;90.40;99151.41;5015140;28;19917;-61
2021/08/03 07:12:07;;;;;;;;;;;;;;;13.76;91.52;99142.47;5033214;28;20011;-61
2021/08/03 07:14:34;;;;;;;;;;;;;;;13.39;92.52;99146.13;5035011;28;20029;-60
2021/08/03 07:16:59;;;;;;;;;;;;;;;13.13;94.19;99132.50;5034645;28;19928;-60
2021/08/03 07:19:24;;;;;;;;;;;;;;;13.20;95.10;99147.59;5036108;28;19917;-61
2021/08/03 07:21:50;;;;;;;;;;;;;;;13.31;95.37;99154.69;5035485;28;20395;-61
2021/08/03 07:24:15;;;;;;;;;;;;;;;13.38;94.61;99147.19;5035882;28;20031;-63
2021/08/03 07:26:40;;;;;;;;;;;;;;;13.47;93.54;99148.28;5034299;28;19974;-63
2021/08/03 07:29:06;;;;;;;;;;;;;;;13.80;93.92;99151.63;5036067;28;19975;-60
2021/08/03 07:31:31;;;;;;;;;;;;;;;13.84;91.62;99158.13;5035484;28;20379;-62
2021/08/03 07:33:56;;;;;;;;;;;;;;;13.91;90.98;99157.88;5035634;28;20045;-62
2021/08/03 07:36:21;;;;;;;;;;;;;;;13.93;91.41;99151.16;5035395;28;19996;-62
2021/08/03 07:38:47;;;;;;;;;;;;;;;13.83;92.22;99159.19;5034640;28;19920;-62
2021/08/03 07:41:12;;;;;;;;;;;;;;;13.69;92.42;99156.19;5035349;28;19929;-62
2021/08/03 07:43:37;;;;;;;;;;;;;;;13.64;93.10;99152.69;5035805;28;20337;-62
2021/08/03 07:46:02;;;;;;;;;;;;;;;13.71;93.31;99150.53;5035252;28;19917;-62
2021/08/03 07:48:28;;;;;;;;;;;;;;;14.02;92.85;99160.31;5034508;28;19976;-62
2021/08/03 07:50:53;;;;;;;;;;;;;;;14.21;90.62;99151.72;5034602;28;19957;-62
2021/08/03 07:53:18;;;;;;;;;;;;;;;14.28;89.94;99152.28;5035409;28;20323;-62
2021/08/03 07:55:43;;;;;;;;;;;;;;;14.46;90.05;99148.22;5034965;28;19944;-62
2021/08/03 07:58:09;;;;;;;;;;;;;;;14.02;90.60;99146.84;5035526;28;20326;-62
2021/08/03 08:00:34;;;;;;;;;;;;;;;14.30;91.05;99139.31;5034832;28;19921;-62
2021/08/03 08:03:00;;;;;;;;;;;;;;;14.34;89.97;99140.41;5035302;28;19975;-62
2021/08/03 08:05:25;;;;;;;;;;;;;;;14.21;90.18;99135.56;5034903;28;20017;-62
2021/08/03 08:07:56;;;;;;;;;;;;;;;14.28;90.71;99127.19;5034047;28;19917;-62
2021/08/03 08:10:24;;;;;;;;;;;;;;;14.52;88.65;99122.88;5033462;28;20023;-62
2021/08/03 08:12:50;;;;;;;;;;;;;;;14.74;87.77;99111.81;5035104;28;20035;-62
2021/08/03 08:15:15;;;;;;;;;;;;;;;14.61;87.60;99115.88;5032719;28;20430;-62
2021/08/03 08:17:40;;;;;;;;;;;;;;;14.77;87.80;99113.97;5015399;28;20284;-62
2021/08/03 08:20:12;;;;;;;;;;;;;;;15.05;86.99;99106.34;5015460;28;19922;-62
2021/08/03 08:22:37;;;;;;;;;;;;;;;14.96;86.51;99102.63;5034887;28;19913;-62
2021/08/03 08:25:04;;;;;;;;;;;;;;;15.32;86.09;99092.47;5033695;28;20378;-62
2021/08/03 08:27:29;;;;;;;;;;;;;;;15.45;85.24;99080.25;5015008;28;19913;-62
2021/08/03 08:29:54;;;;;;;;;;;;;;;15.38;84.95;99080.59;5015269;28;20004;-63
2021/08/03 08:32:20;;;;;;;;;;;;;;;15.44;85.21;99081.38;5032500;28;20307;-62
2021/08/03 08:34:46;;;;;;;;;;;;;;;15.28;83.75;99073.34;5034787;28;19925;-62
2021/08/03 08:37:11;;;;;;;;;;;;;;;15.16;86.20;99080.94;5015202;28;19921;-62
2021/08/03 08:39:36;;;;;;;;;;;;;;;15.54;84.29;99075.91;5014792;28;19991;-62
2021/08/03 08:42:01;;;;;;;;;;;;;;;15.61;84.02;99079.09;5013049;28;19929;-62
2021/08/03 08:44:27;;;;;;;;;;;;;;;15.40;86.46;99073.03;5014783;28;19918;-63
2021/08/03 08:46:54;;;;;;;;;;;;;;;15.05;85.96;99079.34;5014321;28;19921;-63
2021/08/03 08:49:19;;;;;;;;;;;;;;;14.59;89.49;99071.38;5013706;28;19917;-62
2021/08/03 08:51:44;;;;;;;;;;;;;;;14.64;89.50;99074.06;5013118;28;20394;-62
2021/08/03 08:54:10;;;;;;;;;;;;;;;15.14;87.15;99069.63;5014576;28;19944;-63
2021/08/03 08:56:35;;;;;;;;;;;;;;;15.16;86.15;99063.94;5014536;28;19932;-62
2021/08/03 08:59:01;;;;;;;;;;;;;;;14.97;87.71;99071.84;5014754;28;20406;-62
2021/08/03 09:01:26;;;;;;;;;;;;;;;15.13;86.95;99073.41;5025733;28;19932;-62
2021/08/03 09:03:51;;;;;;;;;;;;;;;15.00;86.06;99071.28;5034083;28;20012;-62
2021/08/03 09:06:20;;;;;;;;;;;;;;;15.05;86.09;99076.66;5033754;28;19925;-63
2021/08/03 09:08:45;;;;;;;;;;;;;;;15.36;84.97;99074.66;5034005;28;20006;-62
2021/08/03 09:11:11;;;;;;;;;;;;;;;15.49;86.02;99073.22;5033802;28;19921;-62
2021/08/03 09:13:49;;;;;;;;;;;;;;;15.96;85.01;99078.09;5033995;28;20334;-62
2021/08/03 09:16:14;;;;;;;;;;;;;;;16.50;83.09;99080.91;5033622;28;19975;-62
2021/08/03 09:18:41;;;;;;;;;;;;;;;16.60;82.90;99088.94;5033667;28;19960;-63
2021/08/03 09:21:07;;;;;;;;;;;;;;;16.59;83.61;99088.09;5033554;28;20015;-62
2021/08/03 09:23:43;;;;;;;;;;;;;;;16.28;84.26;99094.91;5032471;28;20260;-63
2021/08/03 09:26:08;;;;;;;;;;;;;;;16.78;82.56;99092.84;5033580;28;19921;-62
2021/08/03 09:28:34;;;;;;;;;;;;;;;16.56;82.41;99093.31;5033736;28;19936;-63
2021/08/03 09:30:59;;;;;;;;;;;;;;;16.28;83.13;99092.19;5033287;28;19922;-62
2021/08/03 09:33:25;;;;;;;;;;;;;;;16.02;82.79;99100.47;5015803;28;19917;-62
2021/08/03 09:35:50;;;;;;;;;;;;;;;15.25;86.36;99095.50;5033224;28;19928;-62
2021/08/03 09:38:19;;;;;;;;;;;;;;;15.97;84.17;99100.53;5033793;28;19921;-62
2021/08/03 09:40:44;;;;;;;;;;;;;;;15.99;83.34;99089.44;5033083;28;19922;-62
2021/08/03 09:43:10;;;;;;;;;;;;;;;16.56;81.60;99088.69;5033580;28;20295;-62
2021/08/03 09:45:54;;;;;;;;;;;;;;;16.23;81.23;99092.25;5033117;28;19921;-62
2021/08/03 09:48:20;;;;;;;;;;;;;;;15.86;81.34;99096.28;5033794;28;19921;-62
2021/08/03 09:50:54;;;;;;;;;;;;;;;15.87;83.11;99092.47;5032444;28;20432;-62
2021/08/03 09:53:35;;;;;;;;;;;;;;;15.48;82.45;99094.03;5031893;28;20015;-62
2021/08/03 09:56:00;;;;;;;;;;;;;;;15.29;82.23;99088.44;5032997;28;19992;-62
2021/08/03 09:58:27;;;;;;;;;;;;;;;15.77;83.07;99089.84;5033194;28;19917;-62
2021/08/03 10:00:53;;;;;;;;;;;;;;;16.09;82.56;99097.47;5032730;28;20005;-62
2021/08/03 10:03:18;;;;;;;;;;;;;;;16.52;80.67;99094.94;5033312;28;19995;-62
2021/08/03 10:05:45;;;;;;;;;;;;;;;16.65;78.41;99093.47;5031796;28;20018;-62
2021/08/03 10:08:10;;;;;;;;;;;;;;;16.89;77.93;99093.53;5032126;28;20328;-62
2021/08/03 10:10:35;;;;;;;;;;;;;;;16.47;79.77;99092.28;5032856;28;20000;-61
2021/08/03 10:13:00;;;;;;;;;;;;;;;16.75;79.64;99093.41;5032981;28;20280;-61
2021/08/03 10:15:26;;;;;;;;;;;;;;;16.76;77.43;99089.59;5031802;28;19951;-61
2021/08/03 10:17:51;;;;;;;;;;;;;;;16.90;77.57;99092.44;5033031;28;19917;-62
2021/08/03 10:20:16;;;;;;;;;;;;;;;17.77;73.95;99088.63;5031591;28;19975;-62
2021/08/03 10:22:46;;;;;;;;;;;;;;;18.13;73.72;99088.94;5033125;28;20011;-62
2021/08/03 10:25:12;;;;;;;;;;;;;;;18.06;71.73;99083.09;5032825;28;19917;-62
2021/08/03 10:27:40;;;;;;;;;;;;;;;19.13;68.41;99083.94;5032996;28;19917;-62
2021/08/03 10:30:05;;;;;;;;;;;;;;;19.14;67.71;99077.38;5032185;28;19917;-62
2021/08/03 10:32:38;;;;;;;;;;;;;;;18.76;68.67;99079.47;5035121;28;19917;-61
2021/08/03 10:35:04;;;;;;;;;;;;;;;20.65;64.64;99077.22;5036840;28;19924;-61
2021/08/03 10:37:48;;;;;;;;;;;;;;;20.76;64.61;99078.53;5037165;28;20275;-62
2021/08/03 10:40:13;;;;;;;;;;;;;;;19.37;65.07;99072.03;5036485;28;19924;-61
2021/08/03 10:42:38;;;;;;;;;;;;;;;19.56;65.77;99064.53;5037120;28;19917;-61
2021/08/03 10:45:10;;;;;;;;;;;;;;;19.17;66.72;99074.06;5036302;28;19917;-61
2021/08/03 10:47:40;;;;;;;;;;;;;;;20.10;62.37;99066.63;5035375;28;19920;-62
2021/08/03 10:50:12;;;;;;;;;;;;;;;19.83;65.31;99073.75;5036049;28;20282;-61
2021/08/03 10:52:53;;;;;;;;;;;;;;;18.68;67.48;99070.09;5036500;28;19951;-61
2021/08/03 10:55:37;;;;;;;;;;;;;;;19.23;66.49;99065.81;5036411;28;19917;-61
2021/08/03 10:58:12;;;;;;;;;;;;;;;20.29;63.92;99059.03;5036471;28;19913;-61
2021/08/03 11:00:43;;;;;;;;;;;;;;;19.82;64.06;99059.38;5036196;28;19956;-61
2021/08/03 11:03:27;;;;;;;;;;;;;;;20.23;62.48;99055.66;5036207;28;20020;-61
2021/08/03 11:05:52;;;;;;;;;;;;;;;20.38;61.66;99053.66;5036114;28;20307;-60
2021/08/03 11:08:34;;;;;;;;;;;;;;;19.10;61.86;99053.84;5036300;28;19924;-61
2021/08/03 11:11:08;;;;;;;;;;;;;;;18.39;64.67;99056.75;5036029;28;19966;-61
2021/08/03 11:13:53;;;;;;;;;;;;;;;18.79;65.60;99045.50;5016493;28;19918;-61
2021/08/03 11:16:19;;;;;;;;;;;;;;;19.09;65.22;99039.44;5005089;28;19929;-61
2021/08/03 11:18:44;;;;;;;;;;;;;;;19.86;62.04;99045.16;4996654;28;19972;-61
2021/08/03 11:21:10;;;;;;;;;;;;;;;20.12;60.28;99037.16;4996262;28;19922;-61
2021/08/03 11:23:55;;;;;;;;;;;;;;;20.23;61.02;99043.97;4996700;28;19918;-61
2021/08/03 11:26:21;;;;;;;;;;;;;;;19.89;59.43;99039.09;4996269;28;19922;-61
2021/08/03 11:28:56;;;;;;;;;;;;;;;20.02;61.26;99035.53;4996505;28;19948;-61
2021/08/03 11:31:22;;;;;;;;;;;;;;;19.83;59.70;99039.22;4996024;28;20365;-61
2021/08/03 11:33:53;;;;;;;;;;;;;;;20.32;57.45;99044.84;4996397;28;20024;-61
2021/08/03 11:36:18;;;;;;;;;;;;;;;20.03;58.56;99029.75;4996030;28;19984;-61
2021/08/03 11:38:44;;;;;;;;;;;;;;;19.59;55.01;99031.34;4996574;28;20008;-59
2021/08/03 11:41:09;;;;;;;;;;;;;;;19.51;56.35;99029.31;4995839;28;19929;-61
2021/08/03 11:43:34;;;;;;;;;;;;;;;19.16;57.15;99034.41;4994686;28;19917;-60
2021/08/03 11:46:00;;;;;;;;;;;;;;;20.15;54.72;99026.47;4994613;28;19922;-61
2021/08/03 11:48:27;;;;;;;;;;;;;;;20.26;54.59;99016.13;4996254;28;19918;-61
2021/08/03 11:50:53;;;;;;;;;;;;;;;20.23;56.49;99016.75;4995760;28;20033;-60
2021/08/03 11:53:21;;;;;;;;;;;;;;;19.97;57.83;99011.97;5002764;28;20443;-60
2021/08/03 11:55:47;;;;;;;;;;;;;;;19.22;58.93;99015.28;5021446;28;20422;-61
2021/08/03 11:58:22;;;;;;;;;;;;;;;19.43;60.30;99013.75;5035508;28;20012;-61
2021/08/03 12:00:51;;;;;;;;;;;;;;;20.04;59.28;99014.22;5035092;28;20272;-61
2021/08/03 12:03:21;;;;;;;;;;;;;;;20.43;55.62;99010.78;5035087;28;19925;-61
2021/08/03 12:05:46;;;;;;;;;;;;;;;18.67;59.87;99007.94;5033363;28;19925;-61
2021/08/03 12:08:12;;;;;;;;;;;;;;;19.36;58.40;99002.50;5035102;28;19917;-61
2021/08/03 12:10:38;;;;;;;;;;;;;;;19.75;58.70;99001.09;5033512;28;19946;-60
2021/08/03 12:13:07;;;;;;;;;;;;;;;20.53;54.82;99003.47;5034857;28;20057;-60
2021/08/03 12:15:48;;;;;;;;;;;;;;;18.92;57.09;99001.25;5034570;28;20360;-60
2021/08/03 12:18:14;;;;;;;;;;;;;;;20.31;55.00;99002.38;5034806;28;19924;-61
2021/08/03 12:20:39;;;;;;;;;;;;;;;20.92;52.70;99008.13;5034565;28;19921;-59
2021/08/03 12:23:08;;;;;;;;;;;;;;;20.46;52.26;98990.28;5034644;28;19920;-61
2021/08/03 12:25:45;;;;;;;;;;;;;;;21.84;49.88;99002.63;5034509;28;19928;-59
2021/08/03 12:28:11;;;;;;;;;;;;;;;20.95;52.27;98993.06;5034601;28;19921;-59
2021/08/03 12:30:37;;;;;;;;;;;;;;;20.89;52.29;99001.41;5034266;28;19925;-61
2021/08/03 12:33:02;;;;;;;;;;;;;;;21.35;50.97;98982.88;5034494;28;20070;-61
2021/08/03 12:35:28;;;;;;;;;;;;;;;21.99;48.01;98995.88;5017867;28;19978;-59
2021/08/03 12:38:09;;;;;;;;;;;;;;;21.27;51.50;98989.94;5034391;28;20004;-60
2021/08/03 12:40:34;;;;;;;;;;;;;;;21.08;51.98;98978.50;5034038;28;20004;-60
2021/08/03 12:42:59;;;;;;;;;;;;;;;21.66;51.49;98980.00;5034282;28;19967;-60
2021/08/03 12:45:25;;;;;;;;;;;;;;;21.92;51.55;98982.72;5033889;28;19922;-59